Time;durP1;ratioP1;P1;durP2;ratioP2;P2;SDS_P1;SDS_P2;PMS_P1;PMS_P2;Temp;Humidity;BMP_temperature;BMP_pressure;BME280_temperature;BME280_humidity;BME280_pressure;Samples;Min_cycle;Max_cycle;Signal;HPM_P1;HPM_P2
2021/05/11 00:00:04;;;;;;;18.88;7.75;;;;;;;;;;5094444;28;20032;-69
2021/05/11 00:02:48;;;;;;;26.02;8.70;;;;;;;;;;5129278;27;20736;-69
2021/05/11 00:05:53;;;;;;;17.00;8.18;;;;;;;;;;5129087;28;20040;-69
2021/05/11 00:08:58;;;;;;;19.67;8.55;;;;;;;;;;5129122;28;20039;-69
2021/05/11 00:12:03;;;;;;;18.58;7.93;;;;;;;;;;5129022;28;20388;-69
2021/05/11 00:15:07;;;;;;;18.48;9.27;;;;;;;;;;5129769;28;20043;-69
2021/05/11 00:18:13;;;;;;;19.52;9.32;;;;;;;;;;5128676;28;20388;-69
2021/05/11 00:21:17;;;;;;;17.83;9.52;;;;;;;;;;5128685;28;20043;-69
2021/05/11 00:24:22;;;;;;;15.68;8.35;;;;;;;;;;5128114;28;20039;-69
2021/05/11 00:27:26;;;;;;;14.73;7.90;;;;;;;;;;5128502;28;20043;-69
2021/05/11 00:30:31;;;;;;;11.45;7.18;;;;;;;;;;5128415;28;20031;-69
2021/05/11 00:33:45;;;;;;;14.48;7.68;;;;;;;;;;5128253;28;20039;-69
2021/05/11 00:36:49;;;;;;;13.00;6.78;;;;;;;;;;5128799;28;20039;-69
2021/05/11 00:39:53;;;;;;;14.38;7.75;;;;;;;;;;5128653;28;20039;-69
2021/05/11 00:42:58;;;;;;;13.75;6.95;;;;;;;;;;5127600;28;20043;-69
2021/05/11 00:46:02;;;;;;;12.95;6.93;;;;;;;;;;5128462;28;20508;-69
2021/05/11 00:49:06;;;;;;;12.23;6.85;;;;;;;;;;5128467;28;20039;-68
2021/05/11 00:52:11;;;;;;;10.93;6.28;;;;;;;;;;5128460;28;20212;-69
2021/05/11 00:55:16;;;;;;;15.10;7.63;;;;;;;;;;5128214;28;20035;-68
2021/05/11 00:58:20;;;;;;;13.10;6.68;;;;;;;;;;5128078;28;20471;-68
2021/05/11 01:01:34;;;;;;;14.20;6.80;;;;;;;;;;5127941;28;20051;-69
2021/05/11 01:04:38;;;;;;;10.88;6.45;;;;;;;;;;5128245;28;20372;-69
2021/05/11 01:07:42;;;;;;;13.95;6.65;;;;;;;;;;5128198;28;20107;-69
2021/05/11 01:10:47;;;;;;;15.35;6.35;;;;;;;;;;5128270;28;20547;-69
2021/05/11 01:13:51;;;;;;;13.35;5.82;;;;;;;;;;5116447;28;20035;-69
2021/05/11 01:16:59;;;;;;;12.30;6.47;;;;;;;;;;5114275;28;20487;-69
2021/05/11 01:20:07;;;;;;;13.93;5.40;;;;;;;;;;5114169;28;20400;-69
2021/05/11 02:22:53;;;;;;;6.88;4.18;;;;;;;;;;4894702;29;20052;-69
2021/05/11 02:25:57;;;;;;;9.82;4.38;;;;;;;;;;4894205;29;20442;-69
2021/05/11 02:29:02;;;;;;;13.55;4.88;;;;;;;;;;4928455;28;20043;-69
2021/05/11 02:32:06;;;;;;;15.80;4.75;;;;;;;;;;5029795;28;20477;-69
2021/05/11 02:35:12;;;;;;;11.15;4.85;;;;;;;;;;5031414;28;20041;-69
2021/05/11 02:38:16;;;;;;;8.77;4.60;;;;;;;;;;5112842;28;20035;-69
2021/05/11 02:41:21;;;;;;;11.27;4.50;;;;;;;;;;5112312;28;20047;-69
2021/05/11 02:44:25;;;;;;;8.90;4.50;;;;;;;;;;5112385;28;20036;-69
2021/05/11 02:47:33;;;;;;;11.48;4.90;;;;;;;;;;5112672;28;20035;-69
2021/05/11 02:50:37;;;;;;;12.98;4.60;;;;;;;;;;5111616;28;20028;-69
2021/05/11 02:53:41;;;;;;;10.45;4.20;;;;;;;;;;5112426;28;20035;-68
2021/05/11 02:56:45;;;;;;;12.43;4.55;;;;;;;;;;5112442;28;20483;-69
2021/05/11 02:59:50;;;;;;;11.68;4.32;;;;;;;;;;5112041;28;20372;-69
2021/05/11 03:02:54;;;;;;;7.63;4.25;;;;;;;;;;5111912;28;20040;-69
2021/05/11 03:06:00;;;;;;;6.93;4.50;;;;;;;;;;5111981;28;20031;-69
2021/05/11 03:09:04;;;;;;;10.18;5.18;;;;;;;;;;5111870;28;20040;-69
2021/05/11 03:12:09;;;;;;;13.32;4.90;;;;;;;;;;5111732;28;20361;-68
2021/05/11 03:15:14;;;;;;;10.50;5.18;;;;;;;;;;5111111;28;20031;-69
2021/05/11 03:18:18;;;;;;;12.77;5.63;;;;;;;;;;5112065;28;20040;-69
2021/05/11 03:21:23;;;;;;;12.55;5.15;;;;;;;;;;5111672;28;20047;-70
2021/05/11 03:24:27;;;;;;;15.85;5.43;;;;;;;;;;5110982;28;20344;-69
2021/05/11 03:27:31;;;;;;;12.80;5.75;;;;;;;;;;5112110;28;20032;-70
2021/05/11 03:30:38;;;;;;;11.35;6.20;;;;;;;;;;5111435;28;20380;-70
2021/05/11 03:33:43;;;;;;;13.93;6.13;;;;;;;;;;5111370;28;20479;-68
2021/05/11 03:36:47;;;;;;;9.70;5.95;;;;;;;;;;5111561;28;20463;-70
2021/05/11 03:39:52;;;;;;;11.18;5.57;;;;;;;;;;5111619;28;20380;-69
2021/05/11 03:43:09;;;;;;;14.57;5.75;;;;;;;;;;5111293;28;20483;-69
2021/05/11 03:46:13;;;;;;;11.85;5.57;;;;;;;;;;5111389;28;20027;-70
2021/05/11 03:49:18;;;;;;;19.13;6.65;;;;;;;;;;5111343;28;20036;-68
2021/05/11 03:52:22;;;;;;;13.68;6.45;;;;;;;;;;5111273;28;20040;-69
2021/05/11 03:55:26;;;;;;;9.68;5.43;;;;;;;;;;5110704;28;20035;-69
2021/05/11 03:58:31;;;;;;;15.45;6.45;;;;;;;;;;5111211;28;20174;-69
2021/05/11 04:01:35;;;;;;;16.65;6.30;;;;;;;;;;5110946;28;20048;-68
2021/05/11 04:04:40;;;;;;;22.20;6.65;;;;;;;;;;5111215;28;20035;-69
2021/05/11 04:07:44;;;;;;;23.52;6.38;;;;;;;;;;5111220;28;20392;-69
2021/05/11 04:10:53;;;;;;;25.42;6.55;;;;;;;;;;5111309;28;20035;-69
2021/05/11 04:17:04;;;;;;;13.02;6.13;;;;;;;;;;5111299;28;20380;-69
2021/05/11 04:20:08;;;;;;;9.63;5.57;;;;;;;;;;5110950;28;20031;-69
2021/05/11 04:23:13;;;;;;;20.15;6.78;;;;;;;;;;5110896;28;20048;-69
2021/05/11 04:26:17;;;;;;;32.95;8.23;;;;;;;;;;5111011;28;20372;-69
2021/05/11 04:29:23;;;;;;;55.80;9.27;;;;;;;;;;5110220;28;20035;-68
2021/05/11 04:32:27;;;;;;;28.83;8.15;;;;;;;;;;5111129;28;20103;-68
2021/05/11 04:35:32;;;;;;;10.63;6.15;;;;;;;;;;5111133;28;20522;-68
2021/05/11 04:38:38;;;;;;;15.18;6.65;;;;;;;;;;5111164;28;20036;-68
2021/05/11 04:41:42;;;;;;;15.80;6.97;;;;;;;;;;5110734;28;20048;-68
2021/05/11 04:44:47;;;;;;;15.02;5.80;;;;;;;;;;5110845;28;20027;-68
2021/05/11 04:47:53;;;;;;;13.32;6.40;;;;;;;;;;5111916;28;20044;-68
2021/05/11 04:50:58;;;;;;;14.80;6.63;;;;;;;;;;5114937;28;20036;-68
2021/05/11 04:54:02;;;;;;;18.73;7.28;;;;;;;;;;5114582;28;20039;-68
2021/05/11 04:57:07;;;;;;;20.77;7.28;;;;;;;;;;5114844;28;20065;-68
2021/05/11 05:00:12;;;;;;;16.73;7.25;;;;;;;;;;5114205;28;20392;-68
2021/05/11 05:03:17;;;;;;;14.63;7.68;;;;;;;;;;5114158;28;20051;-68
2021/05/11 05:06:22;;;;;;;17.60;7.95;;;;;;;;;;5114358;28;20043;-68
2021/05/11 05:09:28;;;;;;;26.50;8.20;;;;;;;;;;5113097;28;20511;-68
2021/05/11 05:12:32;;;;;;;32.28;8.55;;;;;;;;;;5114335;28;20036;-68
2021/05/11 05:15:36;;;;;;;19.60;7.78;;;;;;;;;;5114290;28;20031;-68
2021/05/11 05:18:41;;;;;;;27.63;8.57;;;;;;;;;;5114511;28;20040;-68
2021/05/11 05:21:45;;;;;;;22.33;9.10;;;;;;;;;;5114220;28;20175;-68
2021/05/11 05:24:53;;;;;;;30.92;9.00;;;;;;;;;;5114235;28;20051;-68
2021/05/11 05:28:00;;;;;;;18.88;7.93;;;;;;;;;;5114013;28;20036;-68
2021/05/11 05:31:05;;;;;;;21.73;8.07;;;;;;;;;;5113806;28;20044;-68
2021/05/11 05:34:09;;;;;;;16.00;8.02;;;;;;;;;;5114212;28;20039;-68
2021/05/11 05:37:14;;;;;;;19.48;7.95;;;;;;;;;;5113310;28;20039;-68
2021/05/11 05:40:20;;;;;;;19.08;7.60;;;;;;;;;;5113672;28;20035;-67
2021/05/11 05:43:25;;;;;;;21.67;8.82;;;;;;;;;;5113530;28;20039;-67
2021/05/11 05:46:29;;;;;;;19.15;8.98;;;;;;;;;;5113818;28;20028;-68
2021/05/11 05:49:41;;;;;;;25.38;9.60;;;;;;;;;;5113398;28;20031;-67
2021/05/11 05:52:49;;;;;;;47.25;25.20;;;;;;;;;;5113649;28;20487;-67
2021/05/11 05:55:54;;;;;;;62.53;30.77;;;;;;;;;;5112876;28;20067;-67
2021/05/11 05:58:58;;;;;;;97.18;42.70;;;;;;;;;;5113366;28;20042;-68
2021/05/11 06:02:03;;;;;;;60.05;24.85;;;;;;;;;;5113244;28;20050;-68
2021/05/11 06:05:07;;;;;;;32.72;12.73;;;;;;;;;;5113230;28;20038;-68
2021/05/11 06:08:12;;;;;;;29.40;7.18;;;;;;;;;;5113217;28;20051;-68
2021/05/11 06:17:00;;;;;;;22.92;5.50;;;;;;;;;;5112613;28;20040;-68
2021/05/11 06:18:12;;;;;;;19.70;5.53;;;;;;;;;;5113076;28;20032;-66
2021/05/11 06:21:17;;;;;;;27.13;5.40;;;;;;;;;;5112617;28;20035;-65
2021/05/11 06:24:20;;;;;;;11.10;4.65;;;;;;;;;;5112962;28;20040;-65
2021/05/11 06:27:25;;;;;;;14.45;4.65;;;;;;;;;;5112881;28;20039;-67
2021/05/11 06:30:32;;;;;;;15.02;4.82;;;;;;;;;;5112651;28;20379;-67
2021/05/11 06:33:37;;;;;;;12.00;4.90;;;;;;;;;;5112959;28;20036;-67
2021/05/11 06:36:41;;;;;;;20.77;5.18;;;;;;;;;;5112879;28;20035;-67
2021/05/11 06:39:49;;;;;;;23.38;5.35;;;;;;;;;;5112612;28;20302;-67
2021/05/11 06:42:56;;;;;;;19.25;4.65;;;;;;;;;;5112233;28;20043;-67
2021/05/11 06:52:55;;;;;;;13.65;5.05;;;;;;;;;;5111535;28;20032;-68
2021/05/11 06:55:59;;;;;;;12.52;5.97;;;;;;;;;;5112642;28;20040;-68
2021/05/11 06:59:03;;;;;;;14.75;5.90;;;;;;;;;;5112311;28;20035;-67
2021/05/11 07:02:07;;;;;;;22.60;6.88;;;;;;;;;;5111990;28;20380;-67
2021/05/11 07:05:12;;;;;;;23.48;7.07;;;;;;;;;;5111914;28;20491;-67
2021/05/11 07:08:24;;;;;;;24.90;6.82;;;;;;;;;;5112043;28;20474;-67
2021/05/11 07:14:41;;;;;;;23.77;6.73;;;;;;;;;;5111985;28;20032;-67
2021/05/11 07:17:45;;;;;;;22.10;6.22;;;;;;;;;;5112061;28;20360;-67
2021/05/11 07:20:51;;;;;;;18.10;4.80;;;;;;;;;;5112187;28;20032;-68
2021/05/11 07:23:57;;;;;;;23.75;5.60;;;;;;;;;;5111798;28;20047;-67
2021/05/11 07:27:52;;;;;;;19.13;5.13;;;;;;;;;;5111880;28;20031;-67
2021/05/11 07:30:29;;;;;;;20.63;4.88;;;;;;;;;;5112571;28;20044;-67
2021/05/11 07:33:37;;;;;;;14.68;4.75;;;;;;;;;;5111794;28;20368;-67
2021/05/11 07:36:42;;;;;;;26.25;4.82;;;;;;;;;;5111558;28;20039;-68
2021/05/11 07:39:46;;;;;;;19.42;4.43;;;;;;;;;;5111267;28;20475;-67
2021/05/11 07:42:51;;;;;;;9.98;4.15;;;;;;;;;;5111639;28;20059;-67
2021/05/11 08:03:14;;;;;;;10.35;3.30;;;;;;;;;;5110824;28;20040;-67
2021/05/11 08:16:17;;;;;;;11.25;3.60;;;;;;;;;;5099514;28;20031;-66
2021/05/11 08:29:21;;;;;;;10.50;3.03;;;;;;;;;;5115063;28;20040;-66
2021/05/11 08:32:26;;;;;;;15.90;4.78;;;;;;;;;;5114962;28;20035;-66
2021/05/11 08:35:30;;;;;;;10.35;2.95;;;;;;;;;;5114325;28;20055;-66
2021/05/11 08:38:35;;;;;;;8.75;2.67;;;;;;;;;;5113952;28;20036;-66
2021/05/11 08:41:42;;;;;;;10.32;2.83;;;;;;;;;;5114078;28;20043;-66
2021/05/11 08:44:46;;;;;;;11.85;2.63;;;;;;;;;;5114421;28;20036;-66
2021/05/11 08:47:53;;;;;;;9.95;2.30;;;;;;;;;;5114533;28;20277;-66
2021/05/11 08:55:30;;;;;;;5.50;2.65;;;;;;;;;;5114422;28;20043;-66
2021/05/11 09:08:11;;;;;;;6.47;2.25;;;;;;;;;;5114535;28;20040;-66
2021/05/11 09:28:03;;;;;;;6.88;2.50;;;;;;;;;;5113351;28;20040;-67
2021/05/11 09:32:08;;;;;;;8.43;2.50;;;;;;;;;;5112701;28;20043;-67
2021/05/11 09:54:15;;;;;;;13.85;2.97;;;;;;;;;;5113804;28;20040;-67
2021/05/11 09:55:43;;;;;;;9.45;3.08;;;;;;;;;;5113555;28;20039;-67
2021/05/11 10:47:14;;;;;;;6.55;2.40;;;;;;;;;;5111970;28;20027;-68
2021/05/11 10:50:37;;;;;;;5.82;3.22;;;;;;;;;;5112357;28;20059;-69
2021/05/11 10:53:54;;;;;;;12.90;3.50;;;;;;;;;;5112252;28;20035;-68
2021/05/11 10:57:01;;;;;;;9.73;4.32;;;;;;;;;;5112151;28;20035;-69
2021/05/11 11:03:33;;;;;;;10.73;3.40;;;;;;;;;;5110099;28;20052;-71
2021/05/11 11:06:56;;;;;;;22.27;3.63;;;;;;;;;;5111707;28;20048;-71
2021/05/11 11:10:01;;;;;;;21.08;4.80;;;;;;;;;;5112198;28;20031;-71
2021/05/11 11:13:05;;;;;;;15.32;3.53;;;;;;;;;;5112001;28;20035;-71
2021/05/11 11:16:10;;;;;;;15.05;3.33;;;;;;;;;;5111988;28;20040;-71
2021/05/11 11:19:16;;;;;;;15.75;3.45;;;;;;;;;;5111806;28;20110;-71
2021/05/11 11:25:57;;;;;;;26.60;4.60;;;;;;;;;;5111956;28;20040;-71
2021/05/11 11:29:06;;;;;;;17.17;3.30;;;;;;;;;;5111303;28;20027;-71
2021/05/11 11:32:11;;;;;;;23.85;4.72;;;;;;;;;;5111753;28;20400;-71
2021/05/11 11:35:15;;;;;;;19.15;4.18;;;;;;;;;;5111886;28;20032;-71
2021/05/11 11:38:23;;;;;;;16.00;4.22;;;;;;;;;;5111276;28;20424;-71
2021/05/11 11:41:28;;;;;;;13.18;4.78;;;;;;;;;;5111216;28;20031;-71
2021/05/11 11:44:36;;;;;;;25.38;4.30;;;;;;;;;;5111534;28;20043;-70
2021/05/11 11:47:50;;;;;;;20.38;4.13;;;;;;;;;;5111470;28;20031;-71
2021/05/11 11:50:56;;;;;;;34.60;4.82;;;;;;;;;;5110962;28;20040;-71
2021/05/11 11:54:17;;;;;;;15.73;4.00;;;;;;;;;;5111453;28;20368;-71
2021/05/11 12:00:44;;;;;;;9.52;3.13;;;;;;;;;;5111295;28;20044;-71
2021/05/11 12:03:54;;;;;;;10.80;2.83;;;;;;;;;;5111397;28;20044;-71
2021/05/11 12:07:04;;;;;;;14.23;2.70;;;;;;;;;;5110529;28;20040;-71
2021/05/11 12:10:09;;;;;;;19.33;3.23;;;;;;;;;;5111370;28;20040;-71
2021/05/11 12:13:18;;;;;;;12.13;3.20;;;;;;;;;;5111081;28;20617;-70
2021/05/11 12:16:24;;;;;;;10.98;4.30;;;;;;;;;;5111198;28;20047;-71
2021/05/11 12:19:31;;;;;;;9.13;2.90;;;;;;;;;;5111289;28;20035;-70
2021/05/11 12:22:35;;;;;;;39.15;5.55;;;;;;;;;;5111186;28;20051;-70
2021/05/11 12:25:40;;;;;;;28.77;4.72;;;;;;;;;;5110854;28;20032;-68
2021/05/11 12:28:44;;;;;;;43.65;6.28;;;;;;;;;;5111113;28;20040;-72
2021/05/11 12:31:49;;;;;;;24.77;3.30;;;;;;;;;;5111163;28;20372;-69
2021/05/11 12:35:03;;;;;;;16.65;3.80;;;;;;;;;;5111204;28;20035;-69
2021/05/11 12:38:18;;;;;;;16.65;3.25;;;;;;;;;;5110840;28;20487;-70
2021/05/11 12:41:40;;;;;;;20.65;4.28;;;;;;;;;;5111068;28;20051;-69
2021/05/11 12:44:45;;;;;;;14.90;3.30;;;;;;;;;;5111034;28;20048;-68
2021/05/11 12:47:54;;;;;;;15.82;3.53;;;;;;;;;;5111010;28;20036;-68
2021/05/11 12:50:58;;;;;;;12.57;3.08;;;;;;;;;;5111231;28;20368;-69
2021/05/11 12:54:20;;;;;;;11.63;3.13;;;;;;;;;;5110959;28;20039;-69
2021/05/11 12:57:41;;;;;;;12.23;2.92;;;;;;;;;;5098245;28;20039;-69
2021/05/11 13:00:48;;;;;;;23.48;3.67;;;;;;;;;;5110553;28;20044;-68
2021/05/11 13:04:25;;;;;;;12.40;3.38;;;;;;;;;;5110265;28;20055;-68
2021/05/11 13:21:18;;;;;;;24.67;3.85;;;;;;;;;;5113469;28;20032;-69
2021/05/11 13:27:57;;;;;;;11.98;3.35;;;;;;;;;;5114228;28;20040;-68
2021/05/11 13:31:29;;;;;;;17.33;4.03;;;;;;;;;;5114189;28;20040;-69
2021/05/11 13:34:27;;;;;;;25.73;4.95;;;;;;;;;;5113885;28;20392;-68
2021/05/11 13:37:31;;;;;;;12.23;3.33;;;;;;;;;;5114246;28;20039;-69
2021/05/11 13:40:35;;;;;;;21.10;4.00;;;;;;;;;;5114165;28;20027;-68
2021/05/11 13:43:43;;;;;;;20.75;3.33;;;;;;;;;;5113776;28;20051;-69
2021/05/11 13:46:47;;;;;;;14.27;3.58;;;;;;;;;;5113841;28;20043;-68
2021/05/11 13:49:58;;;;;;;12.90;3.17;;;;;;;;;;5113579;28;20040;-69
2021/05/11 13:53:03;;;;;;;41.65;4.60;;;;;;;;;;5113735;28;20462;-68
2021/05/11 14:02:48;;;;;;;20.27;4.30;;;;;;;;;;5112798;28;20044;-68
2021/05/11 14:05:53;;;;;;;21.48;4.20;;;;;;;;;;5112093;28;20035;-68
2021/05/11 14:08:57;;;;;;;40.08;4.95;;;;;;;;;;5113388;28;20376;-68
2021/05/11 14:12:01;;;;;;;28.70;5.90;;;;;;;;;;5113387;28;20535;-67
2021/05/11 14:15:07;;;;;;;30.80;5.05;;;;;;;;;;5113223;28;20036;-69
2021/05/11 14:18:11;;;;;;;21.50;5.55;;;;;;;;;;5113292;28;20039;-69
2021/05/11 14:21:16;;;;;;;18.92;5.38;;;;;;;;;;5112163;28;20036;-68
2021/05/11 14:24:23;;;;;;;25.20;5.03;;;;;;;;;;5112629;28;20047;-68
2021/05/11 14:27:28;;;;;;;50.10;6.97;;;;;;;;;;5111032;28;20068;-68
2021/05/11 14:30:33;;;;;;;14.68;5.15;;;;;;;;;;5112617;28;20274;-67
2021/05/11 14:33:38;;;;;;;18.17;5.68;;;;;;;;;;5112583;28;20047;-67
2021/05/11 14:36:42;;;;;;;18.33;5.72;;;;;;;;;;5112986;28;20040;-68
2021/05/11 14:39:46;;;;;;;12.95;3.35;;;;;;;;;;5112378;28;20039;-68
2021/05/11 14:42:53;;;;;;;25.83;3.83;;;;;;;;;;5112373;28;20044;-68
2021/05/11 14:45:58;;;;;;;26.50;4.53;;;;;;;;;;5112437;28;20475;-68
2021/05/11 14:49:02;;;;;;;14.55;3.35;;;;;;;;;;5112191;28;20039;-68
2021/05/11 14:52:11;;;;;;;29.70;4.63;;;;;;;;;;5111949;28;20471;-68
2021/05/11 14:55:18;;;;;;;23.80;3.83;;;;;;;;;;5111567;28;20035;-68
2021/05/11 14:58:23;;;;;;;24.17;4.30;;;;;;;;;;5111963;28;20032;-68
2021/05/11 15:01:27;;;;;;;13.45;3.42;;;;;;;;;;5111733;28;20047;-68
2021/05/11 15:04:31;;;;;;;16.15;4.60;;;;;;;;;;5111925;28;20052;-68
2021/05/11 15:07:37;;;;;;;18.98;5.10;;;;;;;;;;5111849;28;20487;-69
2021/05/11 15:10:44;;;;;;;17.30;3.67;;;;;;;;;;5112477;28;20444;-68
2021/05/11 15:13:50;;;;;;;12.35;3.28;;;;;;;;;;5111829;28;20032;-68
2021/05/11 15:17:08;;;;;;;18.20;3.60;;;;;;;;;;5112051;28;20475;-70
2021/05/11 15:20:13;;;;;;;17.10;4.45;;;;;;;;;;5111922;28;20039;-68
2021/05/11 15:23:17;;;;;;;17.15;3.60;;;;;;;;;;5111506;28;20048;-68
2021/05/11 15:26:23;;;;;;;23.27;4.57;;;;;;;;;;5111577;28;20142;-68
2021/05/11 15:29:27;;;;;;;10.45;3.53;;;;;;;;;;5111673;28;20376;-68
2021/05/11 15:32:53;;;;;;;12.35;3.88;;;;;;;;;;5111320;28;20048;-68
2021/05/11 15:35:58;;;;;;;11.43;3.92;;;;;;;;;;5111462;28;20032;-68
2021/05/11 15:39:02;;;;;;;22.13;5.32;;;;;;;;;;5111395;28;20039;-68
2021/05/11 15:42:07;;;;;;;9.77;3.60;;;;;;;;;;5111197;28;20031;-69
2021/05/11 15:45:12;;;;;;;10.77;3.42;;;;;;;;;;5111534;28;20387;-68
2021/05/11 15:48:17;;;;;;;12.00;3.80;;;;;;;;;;5111266;28;20043;-68
2021/05/11 15:51:21;;;;;;;13.63;4.20;;;;;;;;;;5111356;28;20035;-69
2021/05/11 15:54:25;;;;;;;38.42;6.28;;;;;;;;;;5111622;28;20039;-68
2021/05/11 15:57:29;;;;;;;13.70;4.70;;;;;;;;;;5111290;28;20031;-68
2021/05/11 16:00:37;;;;;;;16.45;3.95;;;;;;;;;;5110642;28;20040;-69
2021/05/11 16:03:41;;;;;;;11.50;4.60;;;;;;;;;;5110734;28;20043;-67
2021/05/11 16:06:46;;;;;;;20.40;4.28;;;;;;;;;;5129013;28;20047;-69
2021/05/11 16:09:50;;;;;;;18.92;4.05;;;;;;;;;;5110811;28;20035;-69
2021/05/11 16:12:56;;;;;;;16.08;4.15;;;;;;;;;;5111064;28;20040;-68
2021/05/11 16:16:00;;;;;;;10.68;3.80;;;;;;;;;;5110320;28;20475;-70
2021/05/11 16:19:05;;;;;;;21.88;4.55;;;;;;;;;;5110091;28;20040;-69
2021/05/11 16:22:09;;;;;;;22.52;7.22;;;;;;;;;;5109909;28;20032;-70
2021/05/11 16:25:14;;;;;;;17.98;4.95;;;;;;;;;;5109330;28;20031;-68
2021/05/11 16:28:19;;;;;;;19.23;4.40;;;;;;;;;;5110982;28;20368;-69
2021/05/11 16:31:24;;;;;;;10.63;4.10;;;;;;;;;;5110596;28;20036;-69
2021/05/11 16:34:28;;;;;;;21.40;5.80;;;;;;;;;;5109805;28;20040;-68
2021/05/11 16:37:32;;;;;;;20.15;5.38;;;;;;;;;;5110421;28;20043;-68
2021/05/11 16:40:38;;;;;;;19.90;4.50;;;;;;;;;;5110346;28;20183;-68
2021/05/11 16:43:42;;;;;;;9.88;4.45;;;;;;;;;;5110837;28;20052;-69
2021/05/11 16:46:47;;;;;;;24.42;4.78;;;;;;;;;;5114663;28;20035;-68
2021/05/11 16:49:51;;;;;;;21.30;4.75;;;;;;;;;;5114752;28;20336;-68
2021/05/11 16:52:58;;;;;;;22.88;4.65;;;;;;;;;;5114365;28;20127;-69
2021/05/11 16:56:03;;;;;;;14.15;4.57;;;;;;;;;;5114683;28;20043;-69
2021/05/11 16:59:07;;;;;;;16.75;4.78;;;;;;;;;;5114309;28;20032;-68
2021/05/11 17:02:11;;;;;;;31.95;5.80;;;;;;;;;;5114013;28;20048;-68
2021/05/11 17:05:19;;;;;;;15.75;4.82;;;;;;;;;;5113225;28;20491;-69
2021/05/11 17:08:23;;;;;;;25.20;5.75;;;;;;;;;;5113205;28;20032;-69
2021/05/11 17:11:28;;;;;;;24.38;5.68;;;;;;;;;;5113181;28;20040;-70
2021/05/11 17:14:32;;;;;;;20.40;6.15;;;;;;;;;;5113502;28;20031;-73
2021/05/11 17:17:36;;;;;;;29.60;6.05;;;;;;;;;;5112795;28;20032;-73
2021/05/11 17:20:41;;;;;;;25.20;6.43;;;;;;;;;;5113074;28;20035;-69
2021/05/11 17:23:46;;;;;;;35.58;7.93;;;;;;;;;;5113839;28;20035;-71
2021/05/11 17:26:50;;;;;;;25.27;6.45;;;;;;;;;;5113417;28;20032;-70
2021/05/11 17:29:54;;;;;;;36.00;9.38;;;;;;;;;;5113665;28;20040;-70
2021/05/11 17:32:58;;;;;;;30.23;6.95;;;;;;;;;;5113342;28;20035;-69
2021/05/11 17:36:03;;;;;;;43.15;7.90;;;;;;;;;;5113531;28;20225;-68
2021/05/11 17:39:07;;;;;;;30.23;6.85;;;;;;;;;;5111563;28;20043;-67
2021/05/11 17:42:12;;;;;;;32.20;6.20;;;;;;;;;;5098947;28;20040;-67
2021/05/11 17:45:17;;;;;;;26.42;6.78;;;;;;;;;;5111142;28;20039;-68
2021/05/11 17:48:24;;;;;;;33.90;7.63;;;;;;;;;;5111907;28;20039;-67
2021/05/11 17:51:28;;;;;;;43.40;7.10;;;;;;;;;;5111769;28;20047;-67
2021/05/11 17:54:33;;;;;;;35.70;7.60;;;;;;;;;;5112649;28;20412;-67
2021/05/11 17:57:37;;;;;;;28.70;7.07;;;;;;;;;;5113021;28;20047;-67
2021/05/11 18:00:42;;;;;;;32.88;7.10;;;;;;;;;;5113240;28;20052;-68
2021/05/11 18:03:47;;;;;;;45.45;7.63;;;;;;;;;;5113141;28;20047;-67
2021/05/11 18:06:52;;;;;;;26.20;6.90;;;;;;;;;;5113021;28;20032;-67
2021/05/11 18:09:57;;;;;;;29.83;7.43;;;;;;;;;;5113263;28;20032;-66
2021/05/11 18:13:02;;;;;;;27.77;7.20;;;;;;;;;;5113030;28;20028;-66
2021/05/11 18:16:09;;;;;;;24.20;7.25;;;;;;;;;;5112894;28;20031;-68
2021/05/11 18:19:14;;;;;;;27.75;7.43;;;;;;;;;;5099782;28;20050;-68
2021/05/11 18:22:19;;;;;;;36.25;7.80;;;;;;;;;;5112043;28;20055;-69
2021/05/11 18:25:24;;;;;;;27.92;7.05;;;;;;;;;;5110951;28;20384;-69
2021/05/11 18:28:28;;;;;;;40.63;7.63;;;;;;;;;;5112139;28;20032;-69
2021/05/11 18:31:33;;;;;;;36.38;8.23;;;;;;;;;;5111679;28;20044;-69
2021/05/11 18:34:39;;;;;;;35.60;8.07;;;;;;;;;;5112406;28;20471;-70
2021/05/11 18:37:53;;;;;;;39.97;8.25;;;;;;;;;;5110874;28;20471;-68
2021/05/11 18:40:57;;;;;;;35.65;8.05;;;;;;;;;;5112080;28;20031;-68
2021/05/11 18:44:01;;;;;;;42.45;8.32;;;;;;;;;;5111649;28;20051;-69
2021/05/11 18:47:06;;;;;;;29.63;7.75;;;;;;;;;;5111320;28;20139;-69
2021/05/11 18:50:10;;;;;;;35.67;9.07;;;;;;;;;;5111865;28;20036;-68
2021/05/11 18:53:15;;;;;;;28.35;7.30;;;;;;;;;;5111785;28;20035;-69
2021/05/11 18:56:20;;;;;;;26.13;7.45;;;;;;;;;;5112270;28;20459;-68
2021/05/11 18:59:27;;;;;;;29.08;7.45;;;;;;;;;;5110567;28;20032;-68
2021/05/11 19:02:32;;;;;;;22.35;7.03;;;;;;;;;;5110723;28;20056;-68
2021/05/11 19:05:36;;;;;;;34.20;7.72;;;;;;;;;;5112144;28;20048;-68
2021/05/11 19:08:41;;;;;;;35.95;8.75;;;;;;;;;;5111787;28;20059;-68
2021/05/11 19:11:45;;;;;;;32.85;8.20;;;;;;;;;;5111644;28;20035;-68
2021/05/11 19:14:51;;;;;;;32.42;8.88;;;;;;;;;;5111768;28;20039;-68
2021/05/11 19:17:55;;;;;;;34.78;9.35;;;;;;;;;;5111709;28;20044;-69
2021/05/11 19:21:00;;;;;;;33.80;7.75;;;;;;;;;;5110929;28;20035;-68
2021/05/11 19:24:05;;;;;;;31.50;10.23;;;;;;;;;;5111463;28;20047;-68
2021/05/11 19:27:10;;;;;;;28.02;8.70;;;;;;;;;;5111708;28;20046;-69
2021/05/11 19:30:14;;;;;;;29.15;8.95;;;;;;;;;;5111285;28;20482;-69
2021/05/11 19:33:20;;;;;;;37.38;10.00;;;;;;;;;;5111666;28;20039;-69
2021/05/11 19:36:30;;;;;;;32.28;8.48;;;;;;;;;;5111160;28;20047;-69
2021/05/11 19:39:36;;;;;;;39.72;8.18;;;;;;;;;;5111502;28;20058;-69
2021/05/11 19:42:43;;;;;;;34.90;8.93;;;;;;;;;;5111124;28;20397;-69
2021/05/11 19:45:47;;;;;;;29.55;8.20;;;;;;;;;;5110549;28;20051;-69
2021/05/11 19:48:51;;;;;;;33.08;8.32;;;;;;;;;;5110959;28;20036;-69
2021/05/11 19:51:56;;;;;;;30.65;7.95;;;;;;;;;;5111048;28;20043;-69
2021/05/11 19:55:00;;;;;;;27.13;7.25;;;;;;;;;;5111045;28;20340;-69
2021/05/11 19:58:04;;;;;;;26.60;7.30;;;;;;;;;;5111298;28;20044;-69
2021/05/11 20:01:09;;;;;;;28.48;7.00;;;;;;;;;;5109891;28;20044;-69
2021/05/11 20:04:13;;;;;;;23.95;6.10;;;;;;;;;;5110883;28;20052;-69
2021/05/11 20:07:18;;;;;;;29.58;7.22;;;;;;;;;;5110723;28;20036;-69
2021/05/11 20:10:22;;;;;;;19.02;6.10;;;;;;;;;;5111061;28;20048;-69
2021/05/11 20:13:27;;;;;;;23.08;5.63;;;;;;;;;;5111194;28;20047;-69
2021/05/11 20:16:31;;;;;;;30.55;5.68;;;;;;;;;;5111411;28;20400;-69
2021/05/11 20:19:36;;;;;;;18.65;4.95;;;;;;;;;;5114532;28;20475;-67
2021/05/11 20:22:40;;;;;;;28.27;6.28;;;;;;;;;;5114868;28;20039;-68
2021/05/11 20:25:45;;;;;;;18.08;5.07;;;;;;;;;;5113928;28;20043;-68
2021/05/11 20:28:54;;;;;;;19.38;4.50;;;;;;;;;;5113668;28;20039;-67
2021/05/11 20:31:59;;;;;;;13.38;3.88;;;;;;;;;;5114677;28;20043;-67
2021/05/11 20:35:12;;;;;;;26.85;5.22;;;;;;;;;;5113796;28;20044;-68
2021/05/11 20:38:16;;;;;;;17.45;4.32;;;;;;;;;;5114668;28;20043;-68
2021/05/11 20:41:20;;;;;;;33.38;5.13;;;;;;;;;;5114198;28;20031;-68
2021/05/11 20:44:24;;;;;;;12.77;4.05;;;;;;;;;;5114865;28;20364;-68
2021/05/11 20:47:28;;;;;;;14.98;3.72;;;;;;;;;;5114517;28;20039;-68
2021/05/11 20:50:35;;;;;;;15.98;3.38;;;;;;;;;;5114716;28;20483;-69
2021/05/11 20:53:39;;;;;;;11.48;3.50;;;;;;;;;;5114474;28;20371;-68
2021/05/11 20:56:46;;;;;;;15.40;3.55;;;;;;;;;;5114251;28;20491;-68
2021/05/11 20:59:51;;;;;;;10.45;2.80;;;;;;;;;;5113674;28;20035;-68
2021/05/11 21:02:55;;;;;;;10.88;2.67;;;;;;;;;;5115002;28;20061;-69
2021/05/11 21:06:11;;;;;;;10.65;3.10;;;;;;;;;;5113433;28;20039;-69
2021/05/11 21:09:16;;;;;;;10.23;2.30;;;;;;;;;;5114162;28;20035;-70
2021/05/11 21:12:20;;;;;;;8.32;2.03;;;;;;;;;;5114137;28;20043;-69
2021/05/11 21:15:26;;;;;;;7.72;2.10;;;;;;;;;;5114249;28;20380;-69
2021/05/11 21:18:30;;;;;;;17.42;3.00;;;;;;;;;;5114044;28;20043;-68
2021/05/11 21:21:34;;;;;;;11.68;2.53;;;;;;;;;;5114405;28;20031;-68
2021/05/11 21:24:38;;;;;;;6.80;2.00;;;;;;;;;;5113411;28;20043;-68
2021/05/11 21:27:43;;;;;;;6.93;2.45;;;;;;;;;;5114253;28;20039;-68
2021/05/11 21:30:47;;;;;;;10.43;2.30;;;;;;;;;;5112836;28;20031;-68
2021/05/11 21:33:52;;;;;;;12.60;2.40;;;;;;;;;;5113260;28;20043;-68
2021/05/11 21:36:56;;;;;;;7.43;1.70;;;;;;;;;;5114080;28;20455;-68
2021/05/11 21:40:05;;;;;;;12.65;2.50;;;;;;;;;;5114125;28;20040;-68
2021/05/11 21:43:13;;;;;;;7.72;2.08;;;;;;;;;;5114186;28;20040;-69
2021/05/11 21:46:17;;;;;;;9.05;2.22;;;;;;;;;;5113921;28;20052;-68
2021/05/11 21:49:22;;;;;;;9.15;2.15;;;;;;;;;;5114042;28;20040;-68
2021/05/11 21:52:27;;;;;;;14.48;2.60;;;;;;;;;;5113712;28;20035;-69
2021/05/11 21:55:31;;;;;;;9.05;1.85;;;;;;;;;;5114046;28;20289;-69
2021/05/11 21:58:35;;;;;;;10.40;3.10;;;;;;;;;;5113788;28;20039;-68
2021/05/11 22:01:40;;;;;;;8.75;2.10;;;;;;;;;;5113292;28;20039;-69
2021/05/11 22:04:45;;;;;;;11.45;2.13;;;;;;;;;;5113172;28;20040;-69
2021/05/11 22:07:50;;;;;;;9.80;2.20;;;;;;;;;;5113696;28;20036;-68
2021/05/11 22:10:54;;;;;;;9.48;2.13;;;;;;;;;;5112236;28;20035;-68
2021/05/11 22:13:58;;;;;;;10.15;2.05;;;;;;;;;;5112157;28;20032;-68
2021/05/11 22:17:06;;;;;;;14.38;1.90;;;;;;;;;;5113070;28;20379;-68
2021/05/11 22:20:11;;;;;;;10.63;2.25;;;;;;;;;;5112966;28;20368;-68
2021/05/11 22:23:15;;;;;;;8.27;2.95;;;;;;;;;;5112991;28;20052;-68